createdAt,value
2023-02-23T00:02:12.662Z,13.27
2023-02-23T00:04:39.495Z,22.73
2023-02-23T00:07:07.000Z,15.10
2023-02-23T00:09:36.387Z,15.40
2023-02-23T00:12:09.632Z,19.20
2023-02-23T00:14:38.262Z,15.50
2023-02-23T00:17:13.904Z,19.10
2023-02-23T00:19:43.314Z,17.93
2023-02-23T00:22:10.474Z,18.77
2023-02-23T00:24:38.800Z,21.40
2023-02-23T00:27:06.522Z,20.20
2023-02-23T00:29:39.378Z,18.10
2023-02-23T00:32:06.628Z,17.20
2023-02-23T00:34:36.577Z,13.77
2023-02-23T00:37:04.433Z,15.30
2023-02-23T00:39:31.300Z,17.27
2023-02-23T00:42:03.101Z,15.23
2023-02-23T00:44:33.720Z,18.47
2023-02-23T00:47:02.009Z,21.97
2023-02-23T00:49:29.403Z,20.20
2023-02-23T00:51:56.195Z,22.50
2023-02-23T00:54:23.106Z,22.03
2023-02-23T00:56:50.720Z,21.13
2023-02-23T00:59:19.037Z,18.83
2023-02-23T01:01:46.531Z,22.00
2023-02-23T01:04:13.615Z,23.30
2023-02-23T01:06:42.410Z,21.37
2023-02-23T01:09:14.561Z,24.83
2023-02-23T01:11:41.690Z,19.83
2023-02-23T01:14:10.465Z,15.60
2023-02-23T01:16:38.819Z,16.63
2023-02-23T01:19:06.567Z,21.83
2023-02-23T01:21:38.419Z,21.50
2023-02-23T01:24:06.582Z,19.70
2023-02-23T01:26:38.989Z,19.27
2023-02-23T01:29:11.570Z,20.63
2023-02-23T01:31:41.683Z,15.33
2023-02-23T01:34:12.565Z,22.73
2023-02-23T01:36:43.167Z,22.23
2023-02-23T01:39:16.289Z,15.43
2023-02-23T01:41:45.151Z,17.10
2023-02-23T01:44:14.963Z,18.40
2023-02-23T01:46:45.591Z,18.33
2023-02-23T01:49:20.100Z,21.10
2023-02-23T01:52:04.655Z,20.30
2023-02-23T01:54:38.091Z,21.10
2023-02-23T01:57:13.468Z,22.47
2023-02-23T01:59:45.138Z,18.40
2023-02-23T02:02:13.548Z,19.27
2023-02-23T02:04:45.745Z,23.47
2023-02-23T02:07:15.636Z,16.57
2023-02-23T02:10:04.465Z,14.23
2023-02-23T02:12:31.472Z,15.47
2023-02-23T02:15:00.331Z,17.53
2023-02-23T02:17:30.230Z,19.37
2023-02-23T02:20:44.944Z,18.03
2023-02-23T02:23:46.692Z,19.53
2023-02-23T02:26:54.123Z,22.37
2023-02-23T02:29:56.037Z,21.90
2023-02-23T02:33:14.234Z,18.93
2023-02-23T02:36:24.701Z,20.57
2023-02-23T02:39:23.756Z,16.43
2023-02-23T02:42:25.621Z,19.33
2023-02-23T02:45:30.649Z,13.33
2023-02-23T02:48:19.625Z,21.77
2023-02-23T02:50:57.319Z,23.37
2023-02-23T02:53:45.406Z,18.10
2023-02-23T02:56:19.867Z,18.07
2023-02-23T02:58:50.068Z,16.43
2023-02-23T03:01:37.787Z,16.90
2023-02-23T03:04:44.062Z,12.87
2023-02-23T03:07:47.972Z,17.17
2023-02-23T03:11:03.635Z,17.23
2023-02-23T03:14:31.677Z,18.60
2023-02-23T03:17:41.132Z,14.70
2023-02-23T03:20:51.313Z,16.13
2023-02-23T03:23:57.783Z,22.47
2023-02-23T03:26:46.229Z,17.17
2023-02-23T03:29:51.381Z,19.90
2023-02-23T03:33:06.070Z,17.83
2023-02-23T03:36:23.460Z,19.70
2023-02-23T03:39:39.319Z,18.47
2023-02-23T03:42:34.194Z,22.77
2023-02-23T03:45:28.836Z,15.83
2023-02-23T03:48:18.323Z,15.40
2023-02-23T03:51:17.672Z,22.03
2023-02-23T03:54:31.240Z,20.30
2023-02-23T03:57:23.119Z,23.37
2023-02-23T04:00:21.165Z,14.07
2023-02-23T04:03:14.704Z,14.73
2023-02-23T04:06:03.795Z,17.50
2023-02-23T04:08:56.190Z,15.60
2023-02-23T04:12:09.595Z,15.73
2023-02-23T04:14:48.555Z,17.47
2023-02-23T04:17:17.048Z,17.43
2023-02-23T04:19:52.782Z,17.53
2023-02-23T04:22:21.111Z,16.63
2023-02-23T04:24:47.994Z,17.37
2023-02-23T04:27:15.736Z,15.47
2023-02-23T04:29:43.167Z,23.17
2023-02-23T04:32:15.576Z,22.53
2023-02-23T04:34:43.734Z,18.50
2023-02-23T04:37:14.015Z,18.07
2023-02-23T04:39:48.432Z,22.23
2023-02-23T04:42:17.549Z,18.80
2023-02-23T04:44:45.524Z,24.53
2023-02-23T04:47:15.314Z,17.53
2023-02-23T04:49:43.642Z,21.07
2023-02-23T04:52:13.440Z,18.57
2023-02-23T04:54:41.266Z,15.80
2023-02-23T04:57:12.363Z,17.37
2023-02-23T04:59:39.239Z,21.20
2023-02-23T05:02:06.415Z,22.10
2023-02-23T05:04:35.282Z,19.60
2023-02-23T05:07:05.317Z,16.70
2023-02-23T05:09:32.777Z,23.43
2023-02-23T05:11:59.762Z,21.57
2023-02-23T05:14:27.212Z,17.60
2023-02-23T05:16:54.091Z,23.47
2023-02-23T05:19:21.653Z,21.10
2023-02-23T05:21:50.398Z,15.67
2023-02-23T05:24:18.951Z,19.97
2023-02-23T05:26:46.101Z,25.87
2023-02-23T05:29:13.141Z,17.00
2023-02-23T05:31:40.036Z,22.93
2023-02-23T05:34:10.020Z,17.90
2023-02-23T05:36:37.739Z,22.60
2023-02-23T05:39:04.768Z,21.03
2023-02-23T05:41:31.825Z,27.27
2023-02-23T05:43:58.934Z,18.67
2023-02-23T05:46:27.509Z,25.47
2023-02-23T05:49:00.730Z,23.40
2023-02-23T05:51:33.077Z,31.23
2023-02-23T05:54:00.155Z,22.43
2023-02-23T05:56:27.851Z,26.47
2023-02-23T05:58:57.818Z,29.20
2023-02-23T06:01:26.348Z,26.97
2023-02-23T06:03:53.357Z,27.53
2023-02-23T06:06:20.467Z,27.33
2023-02-23T06:08:49.833Z,19.43
2023-02-23T06:11:20.643Z,23.13
2023-02-23T06:13:48.171Z,25.43
2023-02-23T06:16:15.241Z,26.17
2023-02-23T06:18:42.073Z,24.77
2023-02-23T06:21:08.917Z,28.53
2023-02-23T06:23:35.813Z,28.47
2023-02-23T06:26:02.813Z,30.97
2023-02-23T06:28:30.200Z,24.77
2023-02-23T06:31:01.547Z,24.00
2023-02-23T06:33:28.485Z,23.57
2023-02-23T06:35:56.266Z,26.83
2023-02-23T06:38:23.850Z,25.87
2023-02-23T06:40:50.694Z,28.90
2023-02-23T06:43:17.651Z,26.20
2023-02-23T06:45:46.998Z,28.73
2023-02-23T06:48:14.063Z,24.03
2023-02-23T06:50:40.977Z,23.30
2023-02-23T06:53:08.395Z,28.23
2023-02-23T06:55:35.234Z,23.33
2023-02-23T06:58:02.609Z,27.37
2023-02-23T07:00:30.434Z,19.33
2023-02-23T07:02:58.090Z,23.03
2023-02-23T07:05:24.884Z,25.60
2023-02-23T07:07:52.045Z,25.17
2023-02-23T07:10:19.214Z,19.63
2023-02-23T07:12:52.102Z,17.70
2023-02-23T07:15:20.178Z,17.27
2023-02-23T07:17:48.860Z,14.83
2023-02-23T07:20:16.294Z,15.53
2023-02-23T07:22:43.261Z,14.00
2023-02-23T07:25:10.614Z,15.40
2023-02-23T07:27:38.095Z,14.57
2023-02-23T07:30:05.890Z,16.07
2023-02-23T07:32:32.815Z,14.47
2023-02-23T07:34:59.739Z,16.40
2023-02-23T07:37:26.781Z,19.30
2023-02-23T07:39:53.575Z,18.73
2023-02-23T07:42:20.394Z,18.83
2023-02-23T07:44:49.718Z,19.60
2023-02-23T07:47:16.779Z,20.83
2023-02-23T07:49:43.656Z,22.53
2023-02-23T07:52:10.523Z,19.63
2023-02-23T07:54:37.401Z,23.13
2023-02-23T07:57:04.217Z,20.90
2023-02-23T07:59:32.227Z,23.63
2023-02-23T08:01:59.153Z,22.17
2023-02-23T08:04:26.007Z,19.93
2023-02-23T08:06:52.903Z,20.60
2023-02-23T08:09:19.770Z,19.63
2023-02-23T08:11:46.880Z,20.00
2023-02-23T08:14:14.073Z,19.67
2023-02-23T08:16:47.033Z,19.13
2023-02-23T08:19:13.987Z,17.77
2023-02-23T08:21:43.205Z,19.07
2023-02-23T08:24:10.965Z,16.47
2023-02-23T08:26:38.209Z,17.00
2023-02-23T08:29:05.251Z,17.87
2023-02-23T08:31:32.767Z,17.07
2023-02-23T08:33:59.771Z,16.47
2023-02-23T08:36:26.817Z,17.40
2023-02-23T08:38:57.456Z,16.40
2023-02-23T08:41:25.459Z,18.77
2023-02-23T08:43:52.306Z,18.07
2023-02-23T08:46:20.806Z,16.80
2023-02-23T08:48:48.938Z,18.83
2023-02-23T08:51:16.000Z,16.47
2023-02-23T08:53:42.841Z,16.77
2023-02-23T08:56:12.692Z,18.10
2023-02-23T08:58:39.975Z,16.80
2023-02-23T09:01:06.960Z,18.07
2023-02-23T09:03:38.283Z,19.30
2023-02-23T09:06:18.313Z,19.67
2023-02-23T09:08:45.714Z,17.20
2023-02-23T09:11:12.753Z,20.60
2023-02-23T09:13:39.921Z,18.43
2023-02-23T09:16:08.195Z,17.83
2023-02-23T09:18:35.662Z,18.67
2023-02-23T09:21:08.502Z,20.83
2023-02-23T09:23:36.299Z,19.27
2023-02-23T09:26:08.802Z,20.40
2023-02-23T09:28:36.212Z,20.03
2023-02-23T09:31:12.266Z,20.50
2023-02-23T09:33:40.174Z,20.80
2023-02-23T09:36:16.340Z,19.97
2023-02-23T09:38:46.004Z,22.27
2023-02-23T09:41:46.590Z,20.27
2023-02-23T09:44:36.856Z,21.17
2023-02-23T09:47:28.076Z,21.83
2023-02-23T09:49:59.857Z,21.87
2023-02-23T09:52:40.051Z,20.17
2023-02-23T09:55:12.712Z,24.37
2023-02-23T09:57:45.929Z,23.40
2023-02-23T10:00:27.803Z,19.37
2023-02-23T10:03:14.580Z,23.37
2023-02-23T10:05:55.690Z,21.97
2023-02-23T10:08:34.434Z,22.20
2023-02-23T10:11:41.494Z,19.60
2023-02-23T10:14:23.563Z,19.77
2023-02-23T10:17:15.407Z,20.63
2023-02-23T10:19:59.257Z,21.33
2023-02-23T10:22:27.502Z,20.87
2023-02-23T10:25:07.784Z,20.23
2023-02-23T10:27:48.492Z,21.30
2023-02-23T10:30:36.525Z,19.53
2023-02-23T10:33:18.498Z,18.37
2023-02-23T10:35:45.842Z,19.90
2023-02-23T10:38:19.031Z,17.97
2023-02-23T10:41:08.169Z,18.73
2023-02-23T10:43:35.121Z,21.03
2023-02-23T10:46:02.278Z,20.23
2023-02-23T10:48:43.149Z,19.50
2023-02-23T10:51:29.462Z,20.17
2023-02-23T10:54:01.141Z,20.77
2023-02-23T10:56:34.204Z,20.60
2023-02-23T10:59:01.582Z,21.03
2023-02-23T11:02:00.828Z,19.70
2023-02-23T11:04:35.304Z,19.90
2023-02-23T11:07:21.024Z,20.37
2023-02-23T11:09:49.587Z,22.37
2023-02-23T11:12:25.347Z,20.60
2023-02-23T11:15:32.059Z,22.40
2023-02-23T11:18:07.307Z,21.67
2023-02-23T11:20:44.363Z,18.47
2023-02-23T11:23:23.282Z,20.07
2023-02-23T11:25:57.308Z,19.30
2023-02-23T11:28:36.380Z,21.93
2023-02-23T11:31:16.123Z,19.57
2023-02-23T11:33:43.773Z,18.87
2023-02-23T11:36:21.335Z,18.67
2023-02-23T11:39:02.761Z,18.53
2023-02-23T11:41:32.880Z,17.03
2023-02-23T11:44:04.320Z,17.17
2023-02-23T11:46:39.328Z,15.80
2023-02-23T11:49:23.723Z,15.37
2023-02-23T11:51:54.731Z,11.40
2023-02-23T11:54:33.961Z,11.87
2023-02-23T11:57:04.706Z,10.37
2023-02-23T11:59:40.182Z,10.80
2023-02-23T12:02:27.044Z,12.90
2023-02-23T12:05:10.032Z,11.87
2023-02-23T12:07:43.773Z,11.83
2023-02-23T12:10:41.583Z,13.43
2023-02-23T12:13:29.571Z,12.77
2023-02-23T12:16:05.617Z,13.87
2023-02-23T12:18:58.441Z,13.43
2023-02-23T12:21:44.952Z,13.33
2023-02-23T12:24:42.048Z,12.97
2023-02-23T12:27:42.565Z,14.37
2023-02-23T12:31:04.469Z,13.90
2023-02-23T12:34:01.177Z,14.70
2023-02-23T12:36:46.572Z,14.60
2023-02-23T12:39:35.410Z,18.87
2023-02-23T12:42:42.268Z,15.77
2023-02-23T12:45:22.298Z,16.00
2023-02-23T12:48:30.310Z,16.20
2023-02-23T12:51:02.310Z,15.07
2023-02-23T12:53:41.666Z,16.40
2023-02-23T12:56:23.462Z,16.57
2023-02-23T12:59:17.906Z,16.87
2023-02-23T13:02:15.606Z,16.63
2023-02-23T13:05:16.279Z,15.83
2023-02-23T13:08:12.489Z,17.23
2023-02-23T13:10:50.334Z,17.50
2023-02-23T13:13:37.287Z,17.17
2023-02-23T13:16:08.685Z,17.33
2023-02-23T13:18:47.308Z,15.03
2023-02-23T13:21:36.357Z,16.30
2023-02-23T13:24:24.288Z,19.43
2023-02-23T13:27:03.364Z,16.97
2023-02-23T13:29:39.759Z,17.67
2023-02-23T13:32:16.251Z,18.70
2023-02-23T13:34:54.520Z,16.27
2023-02-23T13:37:29.224Z,19.93
2023-02-23T13:40:25.714Z,17.73
2023-02-23T13:43:32.260Z,20.70
2023-02-23T13:46:24.616Z,20.13
2023-02-23T13:49:02.907Z,19.73
2023-02-23T13:51:42.070Z,21.40
2023-02-23T13:54:16.057Z,21.77
2023-02-23T13:56:53.291Z,22.63
2023-02-23T13:59:25.917Z,23.60
2023-02-23T14:01:55.033Z,23.43
2023-02-23T14:04:36.479Z,25.87
2023-02-23T14:07:09.296Z,22.20
2023-02-23T14:09:44.332Z,22.43
2023-02-23T14:12:12.945Z,22.80
2023-02-23T14:14:46.047Z,25.70
2023-02-23T14:17:15.794Z,23.37
2023-02-23T14:20:24.275Z,26.20
2023-02-23T14:23:20.214Z,26.00
2023-02-23T14:26:26.371Z,27.90
2023-02-23T14:29:25.457Z,24.80
2023-02-23T14:32:12.543Z,29.10
2023-02-23T14:34:52.822Z,28.33
2023-02-23T14:37:34.966Z,28.97
2023-02-23T14:40:20.922Z,30.23
2023-02-23T14:42:55.090Z,31.00
2023-02-23T14:45:38.022Z,30.83
2023-02-23T14:48:14.605Z,29.97
2023-02-23T14:50:47.756Z,32.63
2023-02-23T14:53:21.936Z,34.80
2023-02-23T14:55:49.709Z,35.70
2023-02-23T14:58:35.524Z,32.70
2023-02-23T15:01:02.714Z,34.50
2023-02-23T15:03:30.263Z,34.00
2023-02-23T15:06:00.213Z,34.33
2023-02-23T15:08:30.721Z,37.00
2023-02-23T15:11:14.440Z,35.47
2023-02-23T15:13:49.867Z,34.40
2023-02-23T15:16:31.835Z,43.03
2023-02-23T15:19:35.949Z,42.97
2023-02-23T15:22:05.828Z,39.33
2023-02-23T15:24:48.309Z,39.77
2023-02-23T15:27:42.984Z,40.27
2023-02-23T15:30:32.658Z,37.87
2023-02-23T15:33:06.401Z,34.73
2023-02-23T15:35:47.561Z,39.20
2023-02-23T15:38:42.940Z,42.20
2023-02-23T15:41:35.932Z,39.93
2023-02-23T15:44:44.337Z,42.30
2023-02-23T15:47:28.528Z,40.73
2023-02-23T15:50:35.997Z,43.60
2023-02-23T15:53:15.392Z,41.70
2023-02-23T15:55:46.642Z,45.87
2023-02-23T15:58:24.709Z,46.67
2023-02-23T16:01:28.789Z,43.80
2023-02-23T16:04:16.070Z,42.57
2023-02-23T16:07:13.291Z,37.57
2023-02-23T16:09:50.060Z,35.43
2023-02-23T16:12:32.842Z,37.07
2023-02-23T16:15:27.509Z,33.97
2023-02-23T16:18:12.533Z,36.10
2023-02-23T16:20:47.131Z,34.17
2023-02-23T16:23:33.783Z,34.53
2023-02-23T16:26:29.025Z,35.00
2023-02-23T16:29:00.812Z,34.27
2023-02-23T16:31:47.616Z,31.17
2023-02-23T16:34:49.738Z,32.40
2023-02-23T16:37:25.146Z,28.07
2023-02-23T16:39:52.903Z,32.93
2023-02-23T16:42:33.013Z,34.83
2023-02-23T16:45:00.903Z,32.20
2023-02-23T16:47:41.025Z,31.93
2023-02-23T16:50:25.839Z,31.17
2023-02-23T16:52:54.321Z,28.07
2023-02-23T16:55:28.438Z,31.60
2023-02-23T16:58:00.462Z,30.47
2023-02-23T17:00:31.540Z,32.20
2023-02-23T17:03:00.947Z,29.73
2023-02-23T17:05:29.170Z,32.67
2023-02-23T17:07:58.141Z,30.03
2023-02-23T17:10:32.901Z,32.90
2023-02-23T17:13:19.555Z,31.00
2023-02-23T17:15:53.608Z,31.23
2023-02-23T17:20:53.354Z,33.53
2023-02-23T17:23:26.961Z,33.27
2023-02-23T17:25:58.360Z,39.40
2023-02-23T17:28:25.721Z,38.63
2023-02-23T17:30:52.641Z,31.20
2023-02-23T17:33:19.730Z,32.93
2023-02-23T17:35:46.841Z,30.13
2023-02-23T17:38:15.108Z,31.93
2023-02-23T17:40:41.977Z,30.83
2023-02-23T17:43:09.138Z,31.10
2023-02-23T17:45:36.578Z,31.50
2023-02-23T17:48:03.482Z,30.63
2023-02-23T17:50:30.396Z,29.30
2023-02-23T17:52:57.615Z,30.07
2023-02-23T17:55:25.654Z,28.50
2023-02-23T17:57:52.532Z,27.00
2023-02-23T18:00:20.395Z,29.80
2023-02-23T18:02:47.676Z,26.10
2023-02-23T18:05:15.911Z,25.90
2023-02-23T18:07:43.441Z,26.10
2023-02-23T18:10:11.530Z,25.80
2023-02-23T18:12:38.559Z,21.67
2023-02-23T18:15:07.047Z,24.83
2023-02-23T18:17:37.042Z,23.63
2023-02-23T18:20:06.334Z,24.07
2023-02-23T18:22:33.568Z,24.93
2023-02-23T18:25:00.800Z,26.40
2023-02-23T18:27:27.581Z,24.00
2023-02-23T18:29:54.396Z,25.10
2023-02-23T18:32:21.413Z,24.63
2023-02-23T18:34:48.652Z,23.97
2023-02-23T18:37:22.574Z,25.43
2023-02-23T18:39:53.413Z,22.43
2023-02-23T18:42:20.880Z,23.13
2023-02-23T18:44:47.805Z,24.57
2023-02-23T18:47:15.879Z,24.53
2023-02-23T18:49:43.008Z,26.13
2023-02-23T18:52:09.850Z,28.33
2023-02-23T18:54:39.101Z,30.43
2023-02-23T18:57:07.275Z,20.93
2023-02-23T18:59:34.293Z,26.03
2023-02-23T19:02:01.176Z,24.40
2023-02-23T19:04:28.148Z,23.30
2023-02-23T19:06:55.194Z,21.17
2023-02-23T19:09:22.106Z,20.50
2023-02-23T19:11:50.557Z,20.13
2023-02-23T19:14:22.037Z,20.03
2023-02-23T19:16:50.975Z,19.80
2023-02-23T19:19:18.498Z,21.10
2023-02-23T19:21:45.339Z,18.97
2023-02-23T19:24:12.198Z,21.23
2023-02-23T19:26:40.602Z,19.93
2023-02-23T19:29:08.103Z,22.40
2023-02-23T19:31:35.109Z,22.00
2023-02-23T19:34:05.039Z,22.17
2023-02-23T19:36:33.757Z,21.93
2023-02-23T19:39:14.784Z,21.93
2023-02-23T19:41:44.954Z,17.50
2023-02-23T19:44:11.843Z,20.37
2023-02-23T19:46:39.884Z,18.77
2023-02-23T19:49:07.219Z,24.33
2023-02-23T19:51:34.728Z,19.37
2023-02-23T19:54:02.186Z,21.93
2023-02-23T19:56:29.600Z,18.63
2023-02-23T19:58:59.361Z,21.17
2023-02-23T20:01:29.878Z,18.63
2023-02-23T20:04:02.534Z,19.80
2023-02-23T20:06:34.786Z,17.97
2023-02-23T20:09:04.910Z,17.20
2023-02-23T20:11:33.312Z,18.03
2023-02-23T20:14:00.576Z,18.63
2023-02-23T20:16:29.585Z,21.87
2023-02-23T20:18:58.343Z,20.33
2023-02-23T20:21:30.566Z,15.33
2023-02-23T20:23:57.928Z,15.90
2023-02-23T20:26:34.113Z,14.57
2023-02-23T20:29:02.176Z,16.00
2023-02-23T20:31:33.283Z,14.90
2023-02-23T20:34:06.491Z,15.37
2023-02-23T20:36:33.966Z,17.60
2023-02-23T20:39:00.786Z,14.83
2023-02-23T20:41:28.896Z,13.93
2023-02-23T20:43:56.662Z,12.73
2023-02-23T20:46:24.263Z,13.87
2023-02-23T20:48:51.128Z,14.30
2023-02-23T20:51:19.048Z,13.30
2023-02-23T20:53:48.465Z,12.27
2023-02-23T20:56:19.433Z,12.27
2023-02-23T20:58:47.167Z,10.53
2023-02-23T21:01:22.737Z,12.10
2023-02-23T21:03:53.722Z,12.87
2023-02-23T21:06:24.466Z,11.47
2023-02-23T21:08:55.650Z,10.13
2023-02-23T21:11:27.504Z,11.73
2023-02-23T21:13:54.747Z,14.97
2023-02-23T21:16:26.039Z,9.07
2023-02-23T21:19:04.026Z,11.10
2023-02-23T21:21:47.401Z,12.40
2023-02-23T21:24:17.063Z,12.73
2023-02-23T21:26:45.335Z,12.07
2023-02-23T21:29:16.270Z,11.63
2023-02-23T21:31:46.660Z,11.67
2023-02-23T21:34:15.666Z,11.70
2023-02-23T21:36:42.684Z,12.07
2023-02-23T21:39:09.852Z,11.13
2023-02-23T21:41:37.823Z,12.97
2023-02-23T21:44:07.324Z,13.23
2023-02-23T21:46:34.981Z,12.70
2023-02-23T21:49:03.245Z,12.07
2023-02-23T21:51:34.736Z,11.80
2023-02-23T21:54:02.179Z,12.87
2023-02-23T21:56:29.630Z,14.43
2023-02-23T21:58:57.249Z,15.83
2023-02-23T22:01:29.096Z,15.20
2023-02-23T22:03:57.325Z,16.13
2023-02-23T22:06:28.324Z,15.97
2023-02-23T22:08:56.767Z,14.10
2023-02-23T22:11:27.079Z,14.70
2023-02-23T22:14:00.472Z,13.47
2023-02-23T22:16:32.406Z,11.43
2023-02-23T22:19:03.549Z,12.83
2023-02-23T22:21:33.400Z,13.30
2023-02-23T22:24:04.974Z,17.07
2023-02-23T22:26:37.988Z,13.70
2023-02-23T22:29:06.503Z,17.07
2023-02-23T22:31:33.714Z,16.10
2023-02-23T22:34:00.658Z,14.00
2023-02-23T22:36:27.602Z,16.70
2023-02-23T22:38:58.500Z,16.87
2023-02-23T22:41:29.372Z,15.03
2023-02-23T22:43:57.762Z,15.00
2023-02-23T22:46:25.869Z,15.93
2023-02-23T22:48:53.392Z,16.53
2023-02-23T22:51:20.941Z,18.33
2023-02-23T22:53:48.060Z,23.40
2023-02-23T22:56:17.578Z,19.50
2023-02-23T22:58:44.500Z,15.97
2023-02-23T23:01:12.103Z,16.47
2023-02-23T23:03:45.684Z,18.97
2023-02-23T23:06:22.415Z,20.93
2023-02-23T23:08:55.827Z,18.80
2023-02-23T23:11:26.587Z,22.97
2023-02-23T23:14:01.966Z,18.73
2023-02-23T23:16:35.680Z,18.00
2023-02-23T23:19:11.947Z,20.30
2023-02-23T23:21:41.457Z,20.00
2023-02-23T23:24:15.072Z,22.33
2023-02-23T23:26:44.112Z,23.23
2023-02-23T23:29:14.538Z,28.00
2023-02-23T23:31:45.312Z,28.20
2023-02-23T23:34:13.888Z,26.40
2023-02-23T23:36:49.038Z,25.77
2023-02-23T23:39:26.136Z,23.17
2023-02-23T23:41:54.017Z,24.93
2023-02-23T23:44:28.826Z,24.10
2023-02-23T23:46:56.817Z,24.77
2023-02-23T23:49:27.545Z,28.20
2023-02-23T23:51:56.300Z,26.23
2023-02-23T23:54:28.117Z,29.73
2023-02-23T23:56:55.502Z,27.13
2023-02-23T23:59:26.856Z,21.80
